Time;durP1;ratioP1;P1;durP2;ratioP2;P2;SDS_P1;SDS_P2;PMS_P1;PMS_P2;Temp;Humidity;BMP_temperature;BMP_pressure;BME280_temperature;BME280_humidity;BME280_pressure;Samples;Min_cycle;Max_cycle;Signal;HPM_P1;HPM_P2
2023/09/04 00:02:20;;;;;;;5.78;3.08;;;;;;;;;;10409594;28;20037;-49
2023/09/04 00:07:21;;;;;;;8.40;2.90;;;;;;;;;;10404611;28;20025;-48
2023/09/04 00:12:21;;;;;;;4.00;2.50;;;;;;;;;;10391254;28;20096;-47
2023/09/04 00:17:22;;;;;;;4.97;2.90;;;;;;;;;;10402928;28;20040;-48
2023/09/04 00:22:22;;;;;;;6.80;3.25;;;;;;;;;;10408313;28;20025;-49
2023/09/04 00:27:23;;;;;;;7.68;3.13;;;;;;;;;;10404758;28;20025;-48
2023/09/04 00:32:24;;;;;;;3.10;2.80;;;;;;;;;;10404886;28;20079;-48
2023/09/04 00:37:24;;;;;;;4.43;2.80;;;;;;;;;;10407663;28;20017;-47
2023/09/04 00:42:29;;;;;;;3.80;2.70;;;;;;;;;;10403261;28;20025;-47
2023/09/04 00:47:31;;;;;;;4.13;2.67;;;;;;;;;;10402229;28;20040;-49
2023/09/04 00:52:31;;;;;;;4.30;2.58;;;;;;;;;;10395735;28;20511;-48
2023/09/04 00:57:34;;;;;;;3.42;2.58;;;;;;;;;;10405114;28;20037;-47
2023/09/04 01:02:35;;;;;;;5.72;2.33;;;;;;;;;;10395861;28;20491;-48
2023/09/04 01:07:37;;;;;;;3.80;2.47;;;;;;;;;;10404177;28;20028;-48
2023/09/04 01:12:50;;;;;;;3.25;2.33;;;;;;;;;;10406749;28;20283;-47
2023/09/04 01:17:53;;;;;;;4.60;2.40;;;;;;;;;;10405715;28;20071;-46
2023/09/04 01:22:57;;;;;;;2.60;2.25;;;;;;;;;;10405581;28;20460;-48
2023/09/04 01:28:29;;;;;;;4.05;2.63;;;;;;;;;;10404547;28;20025;-48
2023/09/04 01:33:37;;;;;;;4.53;2.33;;;;;;;;;;10402628;28;20454;-48
2023/09/04 01:38:39;;;;;;;7.38;2.40;;;;;;;;;;10407087;28;20029;-48
2023/09/04 01:43:39;;;;;;;2.88;2.40;;;;;;;;;;10389438;28;20041;-47
2023/09/04 01:48:40;;;;;;;2.85;2.33;;;;;;;;;;10406808;28;20029;-49
2023/09/04 01:53:42;;;;;;;2.40;2.20;;;;;;;;;;10404633;28;20028;-48
2023/09/04 01:58:43;;;;;;;4.22;2.63;;;;;;;;;;10405723;28;20063;-47
2023/09/04 02:03:47;;;;;;;3.15;2.33;;;;;;;;;;10405812;28;20029;-47
2023/09/04 02:08:47;;;;;;;4.05;2.20;;;;;;;;;;10406029;28;20366;-47
2023/09/04 02:13:49;;;;;;;2.88;2.20;;;;;;;;;;10405395;28;20021;-46
2023/09/04 02:18:50;;;;;;;2.95;1.98;;;;;;;;;;10406003;28;20021;-46
2023/09/04 02:23:51;;;;;;;3.40;2.33;;;;;;;;;;10405354;28;20469;-46
2023/09/04 02:28:52;;;;;;;4.32;2.50;;;;;;;;;;10412700;28;20025;-46
2023/09/04 02:33:52;;;;;;;3.42;2.35;;;;;;;;;;10414009;28;20037;-48
2023/09/04 02:38:53;;;;;;;3.00;1.95;;;;;;;;;;10412747;28;20492;-47
2023/09/04 02:43:54;;;;;;;3.00;2.30;;;;;;;;;;10414408;28;20452;-47
2023/09/04 02:48:54;;;;;;;2.30;2.10;;;;;;;;;;10414469;28;20034;-47
2023/09/04 02:53:55;;;;;;;2.75;1.95;;;;;;;;;;10413903;28;20033;-48
2023/09/04 02:58:55;;;;;;;3.15;2.50;;;;;;;;;;10413974;28;20032;-51
2023/09/04 03:03:56;;;;;;;5.03;2.45;;;;;;;;;;10413001;28;20017;-46
2023/09/04 03:08:57;;;;;;;6.88;2.35;;;;;;;;;;10412707;28;20029;-47
2023/09/04 03:13:57;;;;;;;3.92;2.35;;;;;;;;;;10406080;28;20036;-46
2023/09/04 03:18:58;;;;;;;3.38;2.22;;;;;;;;;;10412301;28;20022;-47
2023/09/04 03:23:58;;;;;;;2.70;2.45;;;;;;;;;;10412834;28;20025;-47
2023/09/04 03:28:59;;;;;;;2.50;2.30;;;;;;;;;;10412781;28;20021;-47
2023/09/04 03:34:00;;;;;;;4.07;2.50;;;;;;;;;;10412479;28;20079;-47
2023/09/04 03:39:03;;;;;;;3.05;2.40;;;;;;;;;;10411119;28;20112;-48
2023/09/04 03:44:03;;;;;;;4.75;2.72;;;;;;;;;;10411916;28;20513;-48
2023/09/04 03:49:04;;;;;;;3.90;2.55;;;;;;;;;;10411679;28;20044;-48
2023/09/04 03:54:05;;;;;;;5.70;2.95;;;;;;;;;;10412049;28;20033;-49
2023/09/04 03:59:05;;;;;;;3.05;2.60;;;;;;;;;;10411936;28;20022;-47
2023/09/04 04:04:10;;;;;;;5.07;2.60;;;;;;;;;;10410801;28;20029;-47
2023/09/04 04:09:11;;;;;;;5.35;2.35;;;;;;;;;;10410017;28;20219;-48
2023/09/04 04:14:12;;;;;;;3.58;2.40;;;;;;;;;;10409855;28;20407;-46
2023/09/04 04:19:12;;;;;;;3.35;2.38;;;;;;;;;;10411370;28;20017;-47
2023/09/04 04:24:13;;;;;;;4.53;2.60;;;;;;;;;;10409828;28;20032;-46
2023/09/04 04:29:13;;;;;;;3.22;2.42;;;;;;;;;;10409119;28;20022;-46
2023/09/04 04:34:14;;;;;;;5.95;2.92;;;;;;;;;;10409972;28;20424;-47
2023/09/04 04:39:15;;;;;;;3.35;2.55;;;;;;;;;;10409496;28;20412;-46
2023/09/04 04:44:16;;;;;;;3.15;2.47;;;;;;;;;;10409282;28;20060;-46
2023/09/04 04:49:21;;;;;;;3.47;2.63;;;;;;;;;;10409018;28;20025;-47
2023/09/04 04:54:22;;;;;;;3.88;2.30;;;;;;;;;;10408952;28;20442;-46
2023/09/04 04:59:23;;;;;;;4.75;2.90;;;;;;;;;;10408938;28;20033;-46
2023/09/04 05:04:23;;;;;;;3.28;2.60;;;;;;;;;;10409138;28;20546;-47
2023/09/04 05:09:24;;;;;;;3.85;2.60;;;;;;;;;;10409879;28;20045;-50
2023/09/04 05:14:24;;;;;;;4.15;2.50;;;;;;;;;;10400368;28;20338;-54
2023/09/04 05:19:25;;;;;;;4.15;2.67;;;;;;;;;;10396707;28;20037;-48
2023/09/04 05:24:26;;;;;;;9.02;2.90;;;;;;;;;;10403176;28;20152;-54
2023/09/04 05:29:26;;;;;;;5.75;2.83;;;;;;;;;;10406313;28;20025;-53
2023/09/04 05:34:27;;;;;;;6.20;2.63;;;;;;;;;;10408496;28;20037;-49
2023/09/04 05:39:27;;;;;;;9.93;2.60;;;;;;;;;;10406535;28;20041;-48
2023/09/04 05:44:28;;;;;;;7.95;3.30;;;;;;;;;;10407603;28;20052;-47
2023/09/04 05:49:30;;;;;;;6.43;3.05;;;;;;;;;;10393016;28;20037;-48
2023/09/04 05:54:31;;;;;;;4.10;2.90;;;;;;;;;;10406653;28;20025;-47
2023/09/04 05:59:32;;;;;;;12.50;3.00;;;;;;;;;;10397972;28;20030;-46
2023/09/04 06:04:33;;;;;;;4.10;2.83;;;;;;;;;;10403591;28;20481;-48
2023/09/04 06:09:34;;;;;;;16.33;2.97;;;;;;;;;;10406744;28;20057;-59
2023/09/04 06:14:35;;;;;;;4.13;2.58;;;;;;;;;;10397867;28;20025;-58
2023/09/04 06:19:36;;;;;;;9.85;3.47;;;;;;;;;;10405333;28;20445;-51
2023/09/04 06:24:36;;;;;;;6.22;3.20;;;;;;;;;;10398222;28;20087;-60
2023/09/04 06:29:37;;;;;;;11.50;3.33;;;;;;;;;;10400777;28;20048;-58
2023/09/04 06:34:37;;;;;;;10.85;2.92;;;;;;;;;;10403970;28;20036;-58
2023/09/04 06:39:38;;;;;;;8.93;3.17;;;;;;;;;;10407911;28;20032;-60
2023/09/04 06:44:38;;;;;;;4.68;2.97;;;;;;;;;;10397727;28;20049;-60
2023/09/04 06:49:39;;;;;;;7.15;3.33;;;;;;;;;;10404187;28;20414;-59
2023/09/04 06:54:40;;;;;;;9.85;2.85;;;;;;;;;;10399016;28;20032;-59
2023/09/04 06:59:41;;;;;;;3.90;2.55;;;;;;;;;;10404037;28;20030;-57
2023/09/04 07:04:41;;;;;;;8.68;2.80;;;;;;;;;;10395873;28;20511;-58
2023/09/04 07:09:42;;;;;;;5.35;3.13;;;;;;;;;;10401734;28;20588;-48
2023/09/04 07:14:42;;;;;;;5.55;2.92;;;;;;;;;;10396406;28;20026;-48
2023/09/04 07:19:43;;;;;;;8.02;2.90;;;;;;;;;;10399574;28;20063;-49
2023/09/04 07:24:44;;;;;;;6.10;3.10;;;;;;;;;;10396765;28;20036;-48
2023/09/04 07:29:44;;;;;;;4.70;2.60;;;;;;;;;;10400408;28;20084;-47
2023/09/04 07:34:45;;;;;;;6.13;2.63;;;;;;;;;;10414725;28;20029;-48
2023/09/04 07:39:45;;;;;;;5.38;3.20;;;;;;;;;;10401352;28;20033;-50
2023/09/04 07:44:46;;;;;;;6.75;3.10;;;;;;;;;;10408197;28;20044;-54
2023/09/04 07:49:46;;;;;;;9.40;3.15;;;;;;;;;;10404454;28;20025;-48
2023/09/04 07:54:49;;;;;;;7.55;3.15;;;;;;;;;;10402043;28;20536;-47
2023/09/04 07:59:50;;;;;;;9.82;2.90;;;;;;;;;;10413310;28;20017;-48
2023/09/04 08:04:51;;;;;;;4.88;2.60;;;;;;;;;;10400783;28;20021;-49
2023/09/04 08:09:52;;;;;;;3.83;2.88;;;;;;;;;;10401760;28;20469;-48
2023/09/04 08:14:53;;;;;;;7.03;2.65;;;;;;;;;;10407754;28;20029;-48
2023/09/04 08:19:53;;;;;;;5.10;2.63;;;;;;;;;;10399292;28;20026;-50
2023/09/04 08:24:54;;;;;;;8.63;2.60;;;;;;;;;;10403839;28;20026;-51
2023/09/04 08:29:55;;;;;;;5.00;2.30;;;;;;;;;;10396058;28;20528;-48
2023/09/04 08:34:55;;;;;;;3.20;2.45;;;;;;;;;;10398392;28;20022;-48
2023/09/04 08:39:56;;;;;;;6.80;2.58;;;;;;;;;;10409857;28;20036;-48
2023/09/04 08:44:57;;;;;;;2.63;2.10;;;;;;;;;;10410793;28;20139;-47
2023/09/04 08:50:00;;;;;;;5.20;2.40;;;;;;;;;;10406748;28;20491;-60
2023/09/04 08:55:01;;;;;;;3.80;2.20;;;;;;;;;;10409893;28;20391;-57
2023/09/04 09:00:03;;;;;;;5.63;2.10;;;;;;;;;;10405128;28;20080;-48
2023/09/04 09:05:04;;;;;;;4.80;2.20;;;;;;;;;;10398801;28;20611;-47
2023/09/04 09:10:06;;;;;;;6.80;2.30;;;;;;;;;;10415587;28;20033;-60
2023/09/04 09:15:07;;;;;;;12.02;2.80;;;;;;;;;;10398174;28;20071;-60
2023/09/04 09:20:09;;;;;;;6.75;2.47;;;;;;;;;;10405542;28;20034;-60
2023/09/04 09:25:10;;;;;;;10.75;3.25;;;;;;;;;;10396625;28;20033;-60
2023/09/04 09:30:11;;;;;;;11.52;2.90;;;;;;;;;;10407652;28;20029;-59
2023/09/04 09:35:11;;;;;;;13.60;2.50;;;;;;;;;;10406968;28;20039;-59
2023/09/04 09:40:14;;;;;;;7.47;2.25;;;;;;;;;;10408405;28;20021;-60
2023/09/04 09:45:15;;;;;;;10.93;3.15;;;;;;;;;;10407483;28;20375;-60
2023/09/04 09:50:16;;;;;;;7.05;2.53;;;;;;;;;;10407588;28;20029;-54
2023/09/04 09:55:28;;;;;;;5.72;2.63;;;;;;;;;;10406247;28;20026;-60
2023/09/04 10:00:28;;;;;;;9.60;2.58;;;;;;;;;;10406499;28;20033;-60
2023/09/04 10:05:30;;;;;;;8.13;2.53;;;;;;;;;;10406955;28;20485;-61
2023/09/04 10:10:38;;;;;;;7.50;2.40;;;;;;;;;;10404646;28;20542;-47
2023/09/04 10:15:42;;;;;;;3.40;2.25;;;;;;;;;;10405949;28;20029;-49
2023/09/04 10:20:43;;;;;;;7.00;2.83;;;;;;;;;;10405833;28;20041;-48
2023/09/04 10:25:46;;;;;;;4.78;2.38;;;;;;;;;;10405464;28;20029;-48
2023/09/04 10:30:55;;;;;;;5.25;2.40;;;;;;;;;;10406254;28;20030;-47
2023/09/04 10:35:56;;;;;;;4.80;2.60;;;;;;;;;;10404966;28;20061;-47
2023/09/04 10:40:57;;;;;;;7.47;2.63;;;;;;;;;;10405746;28;20526;-48
2023/09/04 10:46:07;;;;;;;2.63;2.15;;;;;;;;;;10404985;28;20111;-47
2023/09/04 10:51:34;;;;;;;4.75;2.58;;;;;;;;;;10412413;28;20112;-48
2023/09/04 10:56:53;;;;;;;2.63;1.97;;;;;;;;;;10413670;28;20516;-50
2023/09/04 11:01:54;;;;;;;5.38;2.47;;;;;;;;;;10412597;28;20120;-47
2023/09/04 11:07:20;;;;;;;3.40;2.17;;;;;;;;;;10399232;28;20037;-48
2023/09/04 11:12:24;;;;;;;2.72;2.30;;;;;;;;;;10405249;28;20025;-55
2023/09/04 11:17:31;;;;;;;3.55;2.30;;;;;;;;;;10410835;28;20018;-48
2023/09/04 11:22:33;;;;;;;3.67;2.35;;;;;;;;;;10401205;28;20032;-54
2023/09/04 11:27:33;;;;;;;2.67;2.15;;;;;;;;;;10409744;28;20118;-48
2023/09/04 11:32:37;;;;;;;7.00;2.70;;;;;;;;;;10411169;28;20033;-53
2023/09/04 11:37:37;;;;;;;5.80;2.22;;;;;;;;;;10409810;28;20087;-48
2023/09/04 11:42:39;;;;;;;3.15;2.35;;;;;;;;;;10410755;28;20038;-49
2023/09/04 11:47:39;;;;;;;4.18;2.38;;;;;;;;;;10410615;28;20041;-55
2023/09/04 11:52:40;;;;;;;4.68;2.42;;;;;;;;;;10412394;28;20458;-48
2023/09/04 11:57:41;;;;;;;4.53;2.22;;;;;;;;;;10406283;28;20041;-57
2023/09/04 12:02:44;;;;;;;4.80;2.88;;;;;;;;;;10405925;28;20036;-47
2023/09/04 12:07:46;;;;;;;3.97;2.30;;;;;;;;;;10397134;28;20256;-48
2023/09/04 12:12:46;;;;;;;3.30;2.30;;;;;;;;;;10409331;28;20021;-48
2023/09/04 12:17:49;;;;;;;5.00;2.38;;;;;;;;;;10404925;28;20037;-48
2023/09/04 12:22:58;;;;;;;5.78;2.90;;;;;;;;;;10403516;28;20283;-55
2023/09/04 12:27:59;;;;;;;4.20;2.50;;;;;;;;;;10401986;28;20179;-51
2023/09/04 12:33:00;;;;;;;2.53;2.33;;;;;;;;;;10401194;28;20211;-48
2023/09/04 12:38:00;;;;;;;3.55;2.40;;;;;;;;;;10398014;28;20044;-56
2023/09/04 12:43:01;;;;;;;3.30;2.05;;;;;;;;;;10407756;28;20033;-48
2023/09/04 12:48:02;;;;;;;4.30;2.20;;;;;;;;;;10423813;28;20385;-47
2023/09/04 12:53:03;;;;;;;4.13;2.33;;;;;;;;;;10408942;28;20025;-58
2023/09/04 12:58:10;;;;;;;7.45;2.40;;;;;;;;;;10408148;28;20025;-47
2023/09/04 13:03:11;;;;;;;7.70;2.30;;;;;;;;;;10408693;28;20025;-51
2023/09/04 13:08:11;;;;;;;3.33;1.90;;;;;;;;;;10409542;28;20025;-50
2023/09/04 13:13:12;;;;;;;2.33;2.10;;;;;;;;;;10408736;28;20037;-47
2023/09/04 13:18:13;;;;;;;3.47;2.40;;;;;;;;;;10406537;28;20040;-47
2023/09/04 13:23:13;;;;;;;2.92;2.20;;;;;;;;;;10407527;28;20029;-54
2023/09/04 13:28:14;;;;;;;3.78;2.13;;;;;;;;;;10407841;28;20516;-48
2023/09/04 13:33:14;;;;;;;5.63;2.65;;;;;;;;;;10406879;28;20044;-47
2023/09/04 13:38:15;;;;;;;4.82;2.65;;;;;;;;;;10408166;28;20053;-48
2023/09/04 13:43:16;;;;;;;4.90;2.47;;;;;;;;;;10406963;28;20048;-47
2023/09/04 13:48:17;;;;;;;8.45;2.85;;;;;;;;;;10407613;28;20037;-47
2023/09/04 13:53:17;;;;;;;4.15;2.60;;;;;;;;;;10407388;28;20036;-47
2023/09/04 13:58:18;;;;;;;2.72;2.35;;;;;;;;;;10406540;28;20025;-48
2023/09/04 14:03:19;;;;;;;3.85;2.40;;;;;;;;;;10406746;28;20049;-47
2023/09/04 14:08:20;;;;;;;5.43;2.58;;;;;;;;;;10405797;28;20029;-47
2023/09/04 14:13:21;;;;;;;2.45;2.15;;;;;;;;;;10406116;28;20030;-48
2023/09/04 14:18:21;;;;;;;5.68;2.80;;;;;;;;;;10407038;28;20033;-48
2023/09/04 14:23:22;;;;;;;2.35;2.05;;;;;;;;;;10406035;28;20025;-47
2023/09/04 14:28:23;;;;;;;6.63;2.60;;;;;;;;;;10405500;28;20025;-48
2023/09/04 14:33:23;;;;;;;4.97;2.60;;;;;;;;;;10405053;28;20720;-48
2023/09/04 14:38:24;;;;;;;2.85;2.55;;;;;;;;;;10405473;28;20496;-47
2023/09/04 14:43:25;;;;;;;7.22;2.67;;;;;;;;;;10405756;28;20042;-47
2023/09/04 14:48:25;;;;;;;3.05;2.50;;;;;;;;;;10405070;28;20044;-47
2023/09/04 14:53:26;;;;;;;5.03;2.92;;;;;;;;;;10406038;28;20017;-49
2023/09/04 14:58:26;;;;;;;3.03;2.35;;;;;;;;;;10405492;28;20029;-47
2023/09/04 15:03:27;;;;;;;2.92;2.60;;;;;;;;;;10405273;28;20029;-47
2023/09/04 15:08:27;;;;;;;4.32;2.58;;;;;;;;;;10405103;28;20492;-47
2023/09/04 15:13:28;;;;;;;5.13;2.55;;;;;;;;;;10398400;28;20021;-57
2023/09/04 15:18:31;;;;;;;3.58;2.30;;;;;;;;;;10416980;28;20385;-61
2023/09/04 15:23:32;;;;;;;2.83;2.40;;;;;;;;;;10401283;28;20373;-58
2023/09/04 15:28:32;;;;;;;4.10;2.85;;;;;;;;;;10404137;28;20040;-59
2023/09/04 15:33:33;;;;;;;3.45;2.40;;;;;;;;;;10406405;28;20033;-60
2023/09/04 15:38:36;;;;;;;3.20;2.40;;;;;;;;;;10410081;28;20032;-59
2023/09/04 15:43:37;;;;;;;2.40;2.10;;;;;;;;;;10411856;28;20051;-60
2023/09/04 15:48:37;;;;;;;2.63;2.42;;;;;;;;;;10411443;28;20056;-48
2023/09/04 15:53:38;;;;;;;3.05;2.47;;;;;;;;;;10411699;28;20029;-60
2023/09/04 15:58:38;;;;;;;3.38;2.70;;;;;;;;;;10411819;28;20271;-60
2023/09/04 16:03:39;;;;;;;3.47;2.60;;;;;;;;;;10411848;28;20025;-60
2023/09/04 16:08:40;;;;;;;3.00;2.25;;;;;;;;;;10411092;28;20095;-57
2023/09/04 16:13:40;;;;;;;4.38;2.55;;;;;;;;;;10410319;28;20022;-47
2023/09/04 16:18:41;;;;;;;9.00;2.70;;;;;;;;;;10410908;28;20029;-47
2023/09/04 16:23:41;;;;;;;4.60;2.72;;;;;;;;;;10410144;28;20187;-48
2023/09/04 16:28:42;;;;;;;4.65;2.40;;;;;;;;;;10410794;28;20021;-47
2023/09/04 16:33:42;;;;;;;3.33;2.20;;;;;;;;;;10404822;28;20029;-47
2023/09/04 16:38:43;;;;;;;3.65;2.45;;;;;;;;;;10408663;28;20052;-48
2023/09/04 16:43:44;;;;;;;4.95;2.70;;;;;;;;;;10409873;28;20099;-47
2023/09/04 16:48:45;;;;;;;3.63;2.70;;;;;;;;;;10407846;28;20420;-47
2023/09/04 16:53:46;;;;;;;4.50;2.63;;;;;;;;;;10402960;28;20067;-48
2023/09/04 16:58:46;;;;;;;3.92;2.70;;;;;;;;;;10406586;28;20018;-47
2023/09/04 17:03:47;;;;;;;5.28;2.25;;;;;;;;;;10407551;28;20283;-47
2023/09/04 17:08:49;;;;;;;3.28;2.30;;;;;;;;;;10406558;28;20025;-54
2023/09/04 17:13:49;;;;;;;3.22;2.50;;;;;;;;;;10404153;28;20098;-49
2023/09/04 17:18:51;;;;;;;6.28;2.35;;;;;;;;;;10397300;28;20512;-47
2023/09/04 17:23:51;;;;;;;2.95;2.30;;;;;;;;;;10399208;28;20029;-47
2023/09/04 17:28:52;;;;;;;2.30;2.10;;;;;;;;;;10404100;28;20029;-49
2023/09/04 17:33:52;;;;;;;2.60;2.40;;;;;;;;;;10406762;28;20022;-47
2023/09/04 17:38:53;;;;;;;3.80;2.50;;;;;;;;;;10400325;28;20493;-48
2023/09/04 17:43:53;;;;;;;2.88;2.50;;;;;;;;;;10399627;28;20049;-47
2023/09/04 17:48:54;;;;;;;3.22;2.47;;;;;;;;;;10385848;28;20037;-48
2023/09/04 17:53:55;;;;;;;3.00;2.33;;;;;;;;;;10400704;28;20041;-47
2023/09/04 17:58:55;;;;;;;4.03;2.80;;;;;;;;;;10403181;28;20140;-47
2023/09/04 18:03:56;;;;;;;4.47;2.65;;;;;;;;;;10405345;28;20032;-47
2023/09/04 18:08:56;;;;;;;6.15;2.88;;;;;;;;;;10407034;28;20037;-47
2023/09/04 18:13:58;;;;;;;5.75;3.72;;;;;;;;;;10406178;28;20052;-47
2023/09/04 18:18:59;;;;;;;7.78;4.65;;;;;;;;;;10400158;28;20022;-47
2023/09/04 18:24:00;;;;;;;11.73;4.28;;;;;;;;;;10405282;28;20029;-47
2023/09/04 18:29:01;;;;;;;8.98;4.72;;;;;;;;;;10405858;28;20040;-49
2023/09/04 18:34:03;;;;;;;10.07;4.93;;;;;;;;;;10401023;28;20040;-47
2023/09/04 18:39:05;;;;;;;12.40;4.75;;;;;;;;;;10400550;28;20103;-48
2023/09/04 18:44:06;;;;;;;9.40;4.88;;;;;;;;;;10399622;28;20038;-47
2023/09/04 18:49:07;;;;;;;6.22;4.05;;;;;;;;;;10386567;28;20386;-58
2023/09/04 18:54:07;;;;;;;9.65;4.45;;;;;;;;;;10398247;28;20116;-48
2023/09/04 18:59:08;;;;;;;7.90;4.70;;;;;;;;;;10397475;28;20037;-47
2023/09/04 19:04:08;;;;;;;9.60;5.15;;;;;;;;;;10402029;28;20075;-49
2023/09/04 19:09:09;;;;;;;7.05;4.47;;;;;;;;;;10407760;28;20025;-47
2023/09/04 19:14:10;;;;;;;7.15;4.43;;;;;;;;;;10405976;28;20049;-47
2023/09/04 19:19:10;;;;;;;8.20;3.78;;;;;;;;;;10409033;28;20041;-48
2023/09/04 19:24:11;;;;;;;5.75;3.80;;;;;;;;;;10410013;28;20061;-50
2023/09/04 19:29:12;;;;;;;9.90;3.70;;;;;;;;;;10398293;28;20049;-58
2023/09/04 19:34:12;;;;;;;8.02;3.28;;;;;;;;;;10395965;28;20034;-48
2023/09/04 19:39:13;;;;;;;7.47;3.00;;;;;;;;;;10411702;28;20036;-46
2023/09/04 19:44:14;;;;;;;4.15;3.15;;;;;;;;;;10407469;28;20222;-47
2023/09/04 19:49:14;;;;;;;3.58;3.28;;;;;;;;;;10415229;28;20037;-50
2023/09/04 19:54:15;;;;;;;5.13;3.08;;;;;;;;;;10399541;28;20034;-48
2023/09/04 19:59:16;;;;;;;7.75;3.40;;;;;;;;;;10409964;28;20021;-48
2023/09/04 20:04:17;;;;;;;4.00;3.10;;;;;;;;;;10408065;28;20033;-47
2023/09/04 20:09:18;;;;;;;9.70;3.53;;;;;;;;;;10410068;28;20408;-48
2023/09/04 20:14:18;;;;;;;3.70;2.83;;;;;;;;;;10408819;28;20037;-50
2023/09/04 20:19:19;;;;;;;7.75;3.25;;;;;;;;;;10399547;28;20040;-48
2023/09/04 20:24:20;;;;;;;7.50;3.50;;;;;;;;;;10408732;28;20037;-48
2023/09/04 20:29:21;;;;;;;3.67;2.75;;;;;;;;;;10406123;28;20045;-48
2023/09/04 20:34:22;;;;;;;7.00;3.33;;;;;;;;;;10406937;28;20469;-47
2023/09/04 20:39:22;;;;;;;7.07;3.33;;;;;;;;;;10399873;28;20133;-51
2023/09/04 20:44:23;;;;;;;3.20;2.72;;;;;;;;;;10405176;28;20054;-46
2023/09/04 20:49:24;;;;;;;4.47;3.42;;;;;;;;;;10395575;28;20060;-46
2023/09/04 20:54:24;;;;;;;4.85;2.97;;;;;;;;;;10406928;28;20478;-51
2023/09/04 20:59:25;;;;;;;4.10;2.78;;;;;;;;;;10407995;28;20436;-47
2023/09/04 21:04:26;;;;;;;6.82;3.00;;;;;;;;;;10404998;28;20493;-48
2023/09/04 23:22:12;;;;;;;3.63;2.95;;;;;;;;;;10411003;28;20477;-56
2023/09/04 23:27:14;;;;;;;2.85;2.40;;;;;;;;;;10412207;28;20064;-55
2023/09/04 23:32:25;;;;;;;2.78;2.47;;;;;;;;;;10399321;28;20056;-56
2023/09/04 23:37:31;;;;;;;5.38;2.53;;;;;;;;;;10400618;28;20117;-58
2023/09/04 23:48:05;;;;;;;4.13;2.42;;;;;;;;;;10401336;28;20029;-50
2023/09/04 23:53:05;;;;;;;7.13;2.83;;;;;;;;;;10409175;28;20469;-51
2023/09/04 23:58:06;;;;;;;4.57;2.72;;;;;;;;;;10407547;28;20029;-49
